sensor_id;sensor_type;location;lat;lon;timestamp;P1;durP1;ratioP1;P2;durP2;ratioP2
12212;SDS011;6169;44.158;22.788;2022-11-20T00:02:53;10.70;;;8.35;;
12212;SDS011;6169;44.158;22.788;2022-11-20T00:07:55;15.60;;;11.00;;
12212;SDS011;6169;44.158;22.788;2022-11-20T00:12:57;11.57;;;8.15;;
12212;SDS011;6169;44.158;22.788;2022-11-20T00:18:01;12.70;;;8.57;;
12212;SDS011;6169;44.158;22.788;2022-11-20T00:23:03;12.50;;;8.40;;
12212;SDS011;6169;44.158;22.788;2022-11-20T00:28:07;11.20;;;8.32;;
12212;SDS011;6169;44.158;22.788;2022-11-20T00:33:10;13.25;;;9.07;;
12212;SDS011;6169;44.158;22.788;2022-11-20T00:38:13;14.20;;;9.25;;
12212;SDS011;6169;44.158;22.788;2022-11-20T00:43:15;11.10;;;8.20;;
12212;SDS011;6169;44.158;22.788;2022-11-20T00:48:18;13.52;;;9.85;;
12212;SDS011;6169;44.158;22.788;2022-11-20T00:53:21;16.52;;;8.98;;
12212;SDS011;6169;44.158;22.788;2022-11-20T00:58:24;12.60;;;8.70;;
12212;SDS011;6169;44.158;22.788;2022-11-20T01:03:30;10.93;;;8.43;;
12212;SDS011;6169;44.158;22.788;2022-11-20T01:08:33;13.75;;;9.65;;
12212;SDS011;6169;44.158;22.788;2022-11-20T01:13:36;14.07;;;9.15;;
12212;SDS011;6169;44.158;22.788;2022-11-20T01:18:41;13.65;;;9.85;;
12212;SDS011;6169;44.158;22.788;2022-11-20T01:23:46;12.18;;;9.20;;
12212;SDS011;6169;44.158;22.788;2022-11-20T01:28:50;10.90;;;9.15;;
12212;SDS011;6169;44.158;22.788;2022-11-20T01:33:55;13.23;;;10.27;;
12212;SDS011;6169;44.158;22.788;2022-11-20T01:38:59;15.75;;;11.40;;
12212;SDS011;6169;44.158;22.788;2022-11-20T01:44:03;23.45;;;14.95;;
12212;SDS011;6169;44.158;22.788;2022-11-20T01:49:10;26.27;;;19.50;;
12212;SDS011;6169;44.158;22.788;2022-11-20T01:54:17;32.92;;;22.13;;
12212;SDS011;6169;44.158;22.788;2022-11-20T01:59:23;47.75;;;33.60;;
12212;SDS011;6169;44.158;22.788;2022-11-20T02:04:28;48.88;;;31.20;;
12212;SDS011;6169;44.158;22.788;2022-11-20T02:09:31;52.58;;;33.55;;
12212;SDS011;6169;44.158;22.788;2022-11-20T02:14:33;51.03;;;32.72;;
12212;SDS011;6169;44.158;22.788;2022-11-20T02:19:37;58.00;;;36.50;;
12212;SDS011;6169;44.158;22.788;2022-11-20T02:24:40;51.47;;;34.03;;
12212;SDS011;6169;44.158;22.788;2022-11-20T02:29:46;51.70;;;32.35;;
12212;SDS011;6169;44.158;22.788;2022-11-20T02:34:53;47.05;;;31.10;;
12212;SDS011;6169;44.158;22.788;2022-11-20T02:39:56;51.47;;;30.15;;
12212;SDS011;6169;44.158;22.788;2022-11-20T02:44:59;50.47;;;32.20;;
12212;SDS011;6169;44.158;22.788;2022-11-20T02:50:01;49.42;;;31.42;;
12212;SDS011;6169;44.158;22.788;2022-11-20T02:55:05;51.00;;;32.60;;
12212;SDS011;6169;44.158;22.788;2022-11-20T03:00:09;50.30;;;32.53;;
12212;SDS011;6169;44.158;22.788;2022-11-20T03:05:12;45.83;;;30.95;;
12212;SDS011;6169;44.158;22.788;2022-11-20T03:10:15;47.42;;;29.85;;
12212;SDS011;6169;44.158;22.788;2022-11-20T03:15:18;41.97;;;28.92;;
12212;SDS011;6169;44.158;22.788;2022-11-20T03:20:20;46.42;;;29.42;;
12212;SDS011;6169;44.158;22.788;2022-11-20T03:25:24;37.95;;;27.35;;
12212;SDS011;6169;44.158;22.788;2022-11-20T03:30:26;44.15;;;29.38;;
12212;SDS011;6169;44.158;22.788;2022-11-20T03:35:28;39.53;;;27.90;;
12212;SDS011;6169;44.158;22.788;2022-11-20T03:40:32;43.70;;;30.33;;
12212;SDS011;6169;44.158;22.788;2022-11-20T03:45:36;42.20;;;28.88;;
12212;SDS011;6169;44.158;22.788;2022-11-20T03:50:38;38.50;;;27.77;;
12212;SDS011;6169;44.158;22.788;2022-11-20T03:55:41;43.42;;;29.08;;
12212;SDS011;6169;44.158;22.788;2022-11-20T04:00:44;38.50;;;28.58;;
12212;SDS011;6169;44.158;22.788;2022-11-20T04:05:46;42.05;;;29.27;;
12212;SDS011;6169;44.158;22.788;2022-11-20T04:10:50;38.85;;;27.63;;
12212;SDS011;6169;44.158;22.788;2022-11-20T04:15:54;39.60;;;27.50;;
12212;SDS011;6169;44.158;22.788;2022-11-20T04:20:58;32.83;;;23.67;;
12212;SDS011;6169;44.158;22.788;2022-11-20T04:26:03;35.22;;;23.45;;
12212;SDS011;6169;44.158;22.788;2022-11-20T04:31:06;35.17;;;24.85;;
12212;SDS011;6169;44.158;22.788;2022-11-20T04:36:11;36.22;;;22.83;;
12212;SDS011;6169;44.158;22.788;2022-11-20T04:41:16;31.40;;;20.92;;
12212;SDS011;6169;44.158;22.788;2022-11-20T04:46:20;27.67;;;19.35;;
12212;SDS011;6169;44.158;22.788;2022-11-20T04:51:22;26.55;;;18.77;;
12212;SDS011;6169;44.158;22.788;2022-11-20T04:56:26;33.35;;;21.75;;
12212;SDS011;6169;44.158;22.788;2022-11-20T05:01:28;30.15;;;21.00;;
12212;SDS011;6169;44.158;22.788;2022-11-20T05:06:31;30.17;;;21.42;;
12212;SDS011;6169;44.158;22.788;2022-11-20T05:11:35;32.95;;;21.77;;
12212;SDS011;6169;44.158;22.788;2022-11-20T05:16:37;29.65;;;22.90;;
12212;SDS011;6169;44.158;22.788;2022-11-20T05:21:39;31.05;;;22.15;;
12212;SDS011;6169;44.158;22.788;2022-11-20T05:26:43;31.95;;;22.35;;
12212;SDS011;6169;44.158;22.788;2022-11-20T05:31:45;33.20;;;23.70;;
12212;SDS011;6169;44.158;22.788;2022-11-20T05:36:47;34.90;;;24.23;;
12212;SDS011;6169;44.158;22.788;2022-11-20T05:41:51;42.50;;;26.52;;
12212;SDS011;6169;44.158;22.788;2022-11-20T05:47:13;39.42;;;25.65;;
12212;SDS011;6169;44.158;22.788;2022-11-20T05:52:15;44.65;;;26.50;;
12212;SDS011;6169;44.158;22.788;2022-11-20T05:57:18;36.72;;;24.52;;
12212;SDS011;6169;44.158;22.788;2022-11-20T06:02:20;34.25;;;24.13;;
12212;SDS011;6169;44.158;22.788;2022-11-20T06:07:23;37.92;;;25.15;;
12212;SDS011;6169;44.158;22.788;2022-11-20T06:12:26;40.15;;;24.85;;
12212;SDS011;6169;44.158;22.788;2022-11-20T06:17:28;40.38;;;25.63;;
12212;SDS011;6169;44.158;22.788;2022-11-20T06:22:31;34.22;;;23.50;;
12212;SDS011;6169;44.158;22.788;2022-11-20T06:27:35;34.42;;;22.30;;
12212;SDS011;6169;44.158;22.788;2022-11-20T06:32:37;32.78;;;22.45;;
12212;SDS011;6169;44.158;22.788;2022-11-20T06:37:39;35.72;;;23.58;;
12212;SDS011;6169;44.158;22.788;2022-11-20T06:42:43;40.30;;;23.90;;
12212;SDS011;6169;44.158;22.788;2022-11-20T06:47:46;35.17;;;23.05;;
12212;SDS011;6169;44.158;22.788;2022-11-20T06:52:48;31.98;;;22.42;;
12212;SDS011;6169;44.158;22.788;2022-11-20T06:57:51;28.42;;;19.65;;
12212;SDS011;6169;44.158;22.788;2022-11-20T07:02:53;30.50;;;19.52;;
12212;SDS011;6169;44.158;22.788;2022-11-20T07:07:56;27.58;;;17.95;;
12212;SDS011;6169;44.158;22.788;2022-11-20T07:13:00;25.23;;;18.38;;
12212;SDS011;6169;44.158;22.788;2022-11-20T07:18:02;21.45;;;15.95;;
12212;SDS011;6169;44.158;22.788;2022-11-20T07:23:04;27.20;;;19.80;;
12212;SDS011;6169;44.158;22.788;2022-11-20T07:28:08;35.50;;;23.42;;
12212;SDS011;6169;44.158;22.788;2022-11-20T07:33:10;22.83;;;17.58;;
12212;SDS011;6169;44.158;22.788;2022-11-20T07:38:13;20.95;;;16.60;;
12212;SDS011;6169;44.158;22.788;2022-11-20T07:43:16;29.70;;;19.88;;
12212;SDS011;6169;44.158;22.788;2022-11-20T07:48:18;25.88;;;18.30;;
12212;SDS011;6169;44.158;22.788;2022-11-20T07:53:21;28.13;;;19.38;;
12212;SDS011;6169;44.158;22.788;2022-11-20T07:58:24;20.35;;;14.25;;
12212;SDS011;6169;44.158;22.788;2022-11-20T08:03:26;24.45;;;16.48;;
12212;SDS011;6169;44.158;22.788;2022-11-20T08:08:29;36.83;;;21.67;;
12212;SDS011;6169;44.158;22.788;2022-11-20T08:13:33;46.38;;;33.17;;
12212;SDS011;6169;44.158;22.788;2022-11-20T08:18:52;27.73;;;19.20;;
12212;SDS011;6169;44.158;22.788;2022-11-20T08:23:54;26.20;;;19.25;;
12212;SDS011;6169;44.158;22.788;2022-11-20T08:28:58;26.58;;;18.40;;
12212;SDS011;6169;44.158;22.788;2022-11-20T08:34:00;26.60;;;20.05;;
12212;SDS011;6169;44.158;22.788;2022-11-20T08:39:02;29.73;;;19.23;;
12212;SDS011;6169;44.158;22.788;2022-11-20T08:44:07;30.00;;;21.45;;
12212;SDS011;6169;44.158;22.788;2022-11-20T08:49:10;25.15;;;20.05;;
12212;SDS011;6169;44.158;22.788;2022-11-20T08:54:13;28.83;;;19.83;;
12212;SDS011;6169;44.158;22.788;2022-11-20T08:59:19;30.85;;;23.23;;
12212;SDS011;6169;44.158;22.788;2022-11-20T09:04:21;25.45;;;20.15;;
12212;SDS011;6169;44.158;22.788;2022-11-20T09:09:23;41.70;;;28.33;;
12212;SDS011;6169;44.158;22.788;2022-11-20T09:14:27;24.25;;;19.33;;
12212;SDS011;6169;44.158;22.788;2022-11-20T09:19:30;24.35;;;17.23;;
12212;SDS011;6169;44.158;22.788;2022-11-20T09:24:32;20.42;;;16.38;;
12212;SDS011;6169;44.158;22.788;2022-11-20T09:29:36;20.25;;;15.90;;
12212;SDS011;6169;44.158;22.788;2022-11-20T09:34:38;23.30;;;17.17;;
12212;SDS011;6169;44.158;22.788;2022-11-20T09:39:40;23.58;;;15.90;;
12212;SDS011;6169;44.158;22.788;2022-11-20T09:50:20;22.90;;;16.35;;
12212;SDS011;6169;44.158;22.788;2022-11-20T09:55:32;20.52;;;15.10;;
12212;SDS011;6169;44.158;22.788;2022-11-20T10:00:39;31.30;;;23.90;;
12212;SDS011;6169;44.158;22.788;2022-11-20T10:05:41;23.20;;;16.15;;
12212;SDS011;6169;44.158;22.788;2022-11-20T10:10:47;16.45;;;12.60;;
12212;SDS011;6169;44.158;22.788;2022-11-20T10:16:02;16.60;;;12.27;;
12212;SDS011;6169;44.158;22.788;2022-11-20T10:21:19;45.58;;;25.52;;
12212;SDS011;6169;44.158;22.788;2022-11-20T10:26:30;17.67;;;12.40;;
12212;SDS011;6169;44.158;22.788;2022-11-20T10:31:44;18.08;;;12.93;;
12212;SDS011;6169;44.158;22.788;2022-11-20T10:36:50;19.73;;;14.10;;
12212;SDS011;6169;44.158;22.788;2022-11-20T10:41:57;18.33;;;12.60;;
12212;SDS011;6169;44.158;22.788;2022-11-20T10:47:02;14.07;;;11.25;;
12212;SDS011;6169;44.158;22.788;2022-11-20T10:52:07;16.05;;;13.25;;
12212;SDS011;6169;44.158;22.788;2022-11-20T10:57:22;19.80;;;14.18;;
12212;SDS011;6169;44.158;22.788;2022-11-20T11:02:40;16.42;;;12.82;;
12212;SDS011;6169;44.158;22.788;2022-11-20T11:07:44;13.02;;;10.48;;
12212;SDS011;6169;44.158;22.788;2022-11-20T11:12:47;15.98;;;11.18;;
12212;SDS011;6169;44.158;22.788;2022-11-20T11:17:51;30.33;;;20.63;;
12212;SDS011;6169;44.158;22.788;2022-11-20T11:22:55;15.75;;;12.20;;
12212;SDS011;6169;44.158;22.788;2022-11-20T11:27:58;10.70;;;9.27;;
12212;SDS011;6169;44.158;22.788;2022-11-20T11:33:05;15.68;;;12.05;;
12212;SDS011;6169;44.158;22.788;2022-11-20T11:38:11;16.50;;;10.63;;
12212;SDS011;6169;44.158;22.788;2022-11-20T11:43:19;12.90;;;10.82;;
12212;SDS011;6169;44.158;22.788;2022-11-20T11:48:42;13.50;;;11.07;;
12212;SDS011;6169;44.158;22.788;2022-11-20T11:53:58;15.63;;;10.75;;
12212;SDS011;6169;44.158;22.788;2022-11-20T11:59:04;13.98;;;11.48;;
12212;SDS011;6169;44.158;22.788;2022-11-20T12:04:16;11.63;;;8.82;;
12212;SDS011;6169;44.158;22.788;2022-11-20T12:09:23;8.80;;;7.90;;
12212;SDS011;6169;44.158;22.788;2022-11-20T12:14:30;8.82;;;7.55;;
12212;SDS011;6169;44.158;22.788;2022-11-20T12:19:38;9.25;;;7.57;;
12212;SDS011;6169;44.158;22.788;2022-11-20T12:24:45;6.82;;;6.07;;
12212;SDS011;6169;44.158;22.788;2022-11-20T12:29:55;18.33;;;10.93;;
12212;SDS011;6169;44.158;22.788;2022-11-20T12:35:05;22.75;;;11.05;;
12212;SDS011;6169;44.158;22.788;2022-11-20T12:40:27;8.83;;;7.30;;
12212;SDS011;6169;44.158;22.788;2022-11-20T12:45:40;10.07;;;7.90;;
12212;SDS011;6169;44.158;22.788;2022-11-20T12:50:56;9.48;;;7.68;;
12212;SDS011;6169;44.158;22.788;2022-11-20T12:56:17;9.95;;;6.65;;
12212;SDS011;6169;44.158;22.788;2022-11-20T13:01:29;50.53;;;20.40;;
12212;SDS011;6169;44.158;22.788;2022-11-20T13:06:44;9.73;;;8.55;;
12212;SDS011;6169;44.158;22.788;2022-11-20T13:11:47;15.95;;;11.45;;
12212;SDS011;6169;44.158;22.788;2022-11-20T13:16:53;9.07;;;8.18;;
12212;SDS011;6169;44.158;22.788;2022-11-20T13:22:01;11.75;;;10.25;;
12212;SDS011;6169;44.158;22.788;2022-11-20T13:27:05;10.02;;;9.00;;
12212;SDS011;6169;44.158;22.788;2022-11-20T13:32:20;10.45;;;9.40;;
12212;SDS011;6169;44.158;22.788;2022-11-20T13:37:29;11.43;;;9.93;;
12212;SDS011;6169;44.158;22.788;2022-11-20T13:42:33;12.32;;;9.32;;
12212;SDS011;6169;44.158;22.788;2022-11-20T13:47:46;13.32;;;10.20;;
12212;SDS011;6169;44.158;22.788;2022-11-20T13:52:52;10.88;;;9.75;;
12212;SDS011;6169;44.158;22.788;2022-11-20T13:58:05;8.70;;;7.45;;
12212;SDS011;6169;44.158;22.788;2022-11-20T14:03:20;8.80;;;7.35;;
12212;SDS011;6169;44.158;22.788;2022-11-20T14:08:27;15.10;;;12.70;;
12212;SDS011;6169;44.158;22.788;2022-11-20T14:13:34;14.90;;;11.90;;
12212;SDS011;6169;44.158;22.788;2022-11-20T14:18:36;13.88;;;11.95;;
12212;SDS011;6169;44.158;22.788;2022-11-20T14:23:40;13.65;;;11.63;;
12212;SDS011;6169;44.158;22.788;2022-11-20T14:28:42;14.93;;;11.52;;
12212;SDS011;6169;44.158;22.788;2022-11-20T14:33:49;20.15;;;15.73;;
12212;SDS011;6169;44.158;22.788;2022-11-20T14:38:53;16.08;;;11.73;;
12212;SDS011;6169;44.158;22.788;2022-11-20T14:43:56;20.58;;;14.77;;
12212;SDS011;6169;44.158;22.788;2022-11-20T14:49:00;17.30;;;13.20;;
12212;SDS011;6169;44.158;22.788;2022-11-20T14:54:09;15.35;;;11.77;;
12212;SDS011;6169;44.158;22.788;2022-11-20T14:59:21;15.63;;;12.50;;
12212;SDS011;6169;44.158;22.788;2022-11-20T15:04:24;16.00;;;12.35;;
12212;SDS011;6169;44.158;22.788;2022-11-20T15:09:28;15.65;;;13.70;;
12212;SDS011;6169;44.158;22.788;2022-11-20T15:14:30;16.65;;;14.48;;
12212;SDS011;6169;44.158;22.788;2022-11-20T15:19:34;19.52;;;15.35;;
12212;SDS011;6169;44.158;22.788;2022-11-20T15:24:39;21.65;;;15.85;;
12212;SDS011;6169;44.158;22.788;2022-11-20T15:29:41;23.40;;;17.35;;
12212;SDS011;6169;44.158;22.788;2022-11-20T15:34:44;20.13;;;16.35;;
12212;SDS011;6169;44.158;22.788;2022-11-20T15:39:47;23.50;;;18.50;;
12212;SDS011;6169;44.158;22.788;2022-11-20T15:44:50;21.33;;;16.15;;
12212;SDS011;6169;44.158;22.788;2022-11-20T15:49:52;21.73;;;16.38;;
12212;SDS011;6169;44.158;22.788;2022-11-20T15:54:55;22.35;;;15.98;;
12212;SDS011;6169;44.158;22.788;2022-11-20T15:59:58;22.58;;;17.58;;
12212;SDS011;6169;44.158;22.788;2022-11-20T16:05:00;23.95;;;18.35;;
12212;SDS011;6169;44.158;22.788;2022-11-20T16:10:04;20.13;;;15.63;;
12212;SDS011;6169;44.158;22.788;2022-11-20T16:15:07;21.10;;;15.55;;
12212;SDS011;6169;44.158;22.788;2022-11-20T16:20:27;19.38;;;15.18;;
12212;SDS011;6169;44.158;22.788;2022-11-20T16:25:31;18.50;;;14.70;;
12212;SDS011;6169;44.158;22.788;2022-11-20T16:30:34;18.38;;;14.10;;
12212;SDS011;6169;44.158;22.788;2022-11-20T16:35:36;17.75;;;14.40;;
12212;SDS011;6169;44.158;22.788;2022-11-20T16:40:40;22.58;;;15.00;;
12212;SDS011;6169;44.158;22.788;2022-11-20T16:45:42;16.98;;;13.40;;
12212;SDS011;6169;44.158;22.788;2022-11-20T16:50:47;17.15;;;14.60;;
12212;SDS011;6169;44.158;22.788;2022-11-20T16:55:52;22.65;;;16.40;;
12212;SDS011;6169;44.158;22.788;2022-11-20T17:00:54;23.95;;;16.58;;
12212;SDS011;6169;44.158;22.788;2022-11-20T17:05:56;25.98;;;19.05;;
12212;SDS011;6169;44.158;22.788;2022-11-20T17:11:04;17.20;;;13.90;;
12212;SDS011;6169;44.158;22.788;2022-11-20T17:16:08;16.65;;;13.43;;
12212;SDS011;6169;44.158;22.788;2022-11-20T17:21:11;17.55;;;13.07;;
12212;SDS011;6169;44.158;22.788;2022-11-20T17:26:16;16.67;;;13.35;;
12212;SDS011;6169;44.158;22.788;2022-11-20T17:31:20;15.98;;;12.80;;
12212;SDS011;6169;44.158;22.788;2022-11-20T17:36:23;15.38;;;12.27;;
12212;SDS011;6169;44.158;22.788;2022-11-20T17:41:27;16.60;;;13.73;;
12212;SDS011;6169;44.158;22.788;2022-11-20T17:46:30;25.50;;;20.10;;
12212;SDS011;6169;44.158;22.788;2022-11-20T17:51:33;20.95;;;15.18;;
12212;SDS011;6169;44.158;22.788;2022-11-20T17:56:37;15.00;;;13.40;;
12212;SDS011;6169;44.158;22.788;2022-11-20T18:01:56;14.82;;;10.77;;
12212;SDS011;6169;44.158;22.788;2022-11-20T18:06:59;15.70;;;11.57;;
12212;SDS011;6169;44.158;22.788;2022-11-20T18:12:02;16.38;;;12.02;;
12212;SDS011;6169;44.158;22.788;2022-11-20T18:17:06;14.23;;;10.55;;
12212;SDS011;6169;44.158;22.788;2022-11-20T18:22:10;21.83;;;15.90;;
12212;SDS011;6169;44.158;22.788;2022-11-20T18:27:15;18.83;;;13.68;;
12212;SDS011;6169;44.158;22.788;2022-11-20T18:32:19;20.67;;;15.10;;
12212;SDS011;6169;44.158;22.788;2022-11-20T18:37:22;24.48;;;16.30;;
12212;SDS011;6169;44.158;22.788;2022-11-20T18:42:25;29.48;;;20.70;;
12212;SDS011;6169;44.158;22.788;2022-11-20T18:47:45;23.95;;;14.85;;
12212;SDS011;6169;44.158;22.788;2022-11-20T18:52:47;28.23;;;19.17;;
12212;SDS011;6169;44.158;22.788;2022-11-20T18:57:51;26.60;;;19.02;;
12212;SDS011;6169;44.158;22.788;2022-11-20T19:02:54;21.33;;;15.35;;
12212;SDS011;6169;44.158;22.788;2022-11-20T19:07:56;23.15;;;16.63;;
12212;SDS011;6169;44.158;22.788;2022-11-20T19:13:00;24.05;;;15.80;;
12212;SDS011;6169;44.158;22.788;2022-11-20T19:18:02;23.55;;;16.60;;
12212;SDS011;6169;44.158;22.788;2022-11-20T19:23:04;26.67;;;18.73;;
12212;SDS011;6169;44.158;22.788;2022-11-20T19:28:08;22.67;;;16.77;;
12212;SDS011;6169;44.158;22.788;2022-11-20T19:33:10;51.05;;;35.55;;
12212;SDS011;6169;44.158;22.788;2022-11-20T19:38:12;59.60;;;34.00;;
12212;SDS011;6169;44.158;22.788;2022-11-20T19:43:15;86.72;;;66.72;;
12212;SDS011;6169;44.158;22.788;2022-11-20T19:48:18;85.72;;;68.70;;
12212;SDS011;6169;44.158;22.788;2022-11-20T19:53:20;49.60;;;36.58;;
12212;SDS011;6169;44.158;22.788;2022-11-20T19:58:23;68.82;;;50.78;;
12212;SDS011;6169;44.158;22.788;2022-11-20T20:03:26;29.00;;;20.02;;
12212;SDS011;6169;44.158;22.788;2022-11-20T20:08:28;28.48;;;16.80;;
12212;SDS011;6169;44.158;22.788;2022-11-20T20:13:32;27.48;;;19.13;;
12212;SDS011;6169;44.158;22.788;2022-11-20T20:18:34;26.70;;;17.92;;
12212;SDS011;6169;44.158;22.788;2022-11-20T20:23:37;27.23;;;17.60;;
12212;SDS011;6169;44.158;22.788;2022-11-20T20:28:41;24.58;;;17.73;;
12212;SDS011;6169;44.158;22.788;2022-11-20T20:33:43;28.58;;;19.63;;
12212;SDS011;6169;44.158;22.788;2022-11-20T20:38:46;23.95;;;18.00;;
12212;SDS011;6169;44.158;22.788;2022-11-20T20:43:50;25.55;;;15.85;;
12212;SDS011;6169;44.158;22.788;2022-11-20T20:49:09;20.95;;;15.63;;
12212;SDS011;6169;44.158;22.788;2022-11-20T20:54:11;30.83;;;21.38;;
12212;SDS011;6169;44.158;22.788;2022-11-20T20:59:15;21.98;;;16.65;;
12212;SDS011;6169;44.158;22.788;2022-11-20T21:04:18;22.15;;;14.25;;
12212;SDS011;6169;44.158;22.788;2022-11-20T21:09:20;21.90;;;13.68;;
12212;SDS011;6169;44.158;22.788;2022-11-20T21:14:24;23.15;;;15.52;;
12212;SDS011;6169;44.158;22.788;2022-11-20T21:19:26;21.02;;;13.85;;
12212;SDS011;6169;44.158;22.788;2022-11-20T21:24:28;19.70;;;12.82;;
12212;SDS011;6169;44.158;22.788;2022-11-20T21:29:32;21.80;;;14.55;;
12212;SDS011;6169;44.158;22.788;2022-11-20T21:34:34;23.05;;;16.45;;
12212;SDS011;6169;44.158;22.788;2022-11-20T21:39:37;26.60;;;16.23;;
12212;SDS011;6169;44.158;22.788;2022-11-20T21:44:51;21.52;;;15.40;;
12212;SDS011;6169;44.158;22.788;2022-11-20T21:49:53;22.98;;;13.60;;
12212;SDS011;6169;44.158;22.788;2022-11-20T21:54:55;24.65;;;15.75;;
12212;SDS011;6169;44.158;22.788;2022-11-20T21:59:59;29.65;;;17.27;;
12212;SDS011;6169;44.158;22.788;2022-11-20T22:05:01;22.23;;;14.93;;
12212;SDS011;6169;44.158;22.788;2022-11-20T22:10:03;27.88;;;19.23;;
12212;SDS011;6169;44.158;22.788;2022-11-20T22:15:08;24.63;;;17.73;;
12212;SDS011;6169;44.158;22.788;2022-11-20T22:20:11;22.25;;;16.08;;
12212;SDS011;6169;44.158;22.788;2022-11-20T22:25:13;25.98;;;16.05;;
12212;SDS011;6169;44.158;22.788;2022-11-20T22:30:17;22.80;;;16.38;;
12212;SDS011;6169;44.158;22.788;2022-11-20T22:35:19;28.90;;;16.50;;
12212;SDS011;6169;44.158;22.788;2022-11-20T22:40:21;22.60;;;14.55;;
12212;SDS011;6169;44.158;22.788;2022-11-20T22:45:25;25.63;;;16.73;;
12212;SDS011;6169;44.158;22.788;2022-11-20T22:50:27;27.30;;;16.50;;
12212;SDS011;6169;44.158;22.788;2022-11-20T22:55:31;22.73;;;15.43;;
12212;SDS011;6169;44.158;22.788;2022-11-20T23:00:35;20.42;;;13.48;;
12212;SDS011;6169;44.158;22.788;2022-11-20T23:05:37;22.13;;;14.05;;
12212;SDS011;6169;44.158;22.788;2022-11-20T23:10:40;22.13;;;14.75;;
12212;SDS011;6169;44.158;22.788;2022-11-20T23:15:43;20.75;;;14.52;;
12212;SDS011;6169;44.158;22.788;2022-11-20T23:20:45;23.67;;;16.45;;
12212;SDS011;6169;44.158;22.788;2022-11-20T23:25:48;28.17;;;17.67;;
12212;SDS011;6169;44.158;22.788;2022-11-20T23:30:51;32.72;;;20.23;;
12212;SDS011;6169;44.158;22.788;2022-11-20T23:35:53;27.45;;;16.98;;
12212;SDS011;6169;44.158;22.788;2022-11-20T23:40:56;21.30;;;14.63;;
12212;SDS011;6169;44.158;22.788;2022-11-20T23:46:00;21.52;;;13.40;;
12212;SDS011;6169;44.158;22.788;2022-11-20T23:51:03;19.92;;;12.80;;
12212;SDS011;6169;44.158;22.788;2022-11-20T23:56:06;18.08;;;11.10;;
